sensor_id;sensor_type;location;lat;lon;timestamp;pressure;altitude;pressure_sealevel;temperature;humidity
14383;BME280;7275;50.328;8.720;2023-02-15T00:00:32;101285.41;;;8.14;47.20
14383;BME280;7275;50.328;8.720;2023-02-15T00:03:00;101283.66;;;8.09;47.12
14383;BME280;7275;50.328;8.720;2023-02-15T00:05:30;101281.06;;;8.06;47.08
14383;BME280;7275;50.328;8.720;2023-02-15T00:07:57;101281.06;;;8.06;47.29
14383;BME280;7275;50.328;8.720;2023-02-15T00:10:25;101277.53;;;8.06;47.20
14383;BME280;7275;50.328;8.720;2023-02-15T00:12:52;101275.78;;;8.06;47.16
14383;BME280;7275;50.328;8.720;2023-02-15T00:15:20;101264.38;;;8.06;47.33
14383;BME280;7275;50.328;8.720;2023-02-15T00:17:48;101262.63;;;8.06;47.26
14383;BME280;7275;50.328;8.720;2023-02-15T00:20:15;101265.25;;;8.06;47.12
14383;BME280;7275;50.328;8.720;2023-02-15T00:22:46;101255.59;;;8.05;47.35
14383;BME280;7275;50.328;8.720;2023-02-15T00:25:13;101255.59;;;8.07;47.23
14383;BME280;7275;50.328;8.720;2023-02-15T00:27:41;101258.25;;;8.07;47.08
14383;BME280;7275;50.328;8.720;2023-02-15T00:30:09;101249.44;;;8.08;46.78
14383;BME280;7275;50.328;8.720;2023-02-15T00:32:37;101250.31;;;8.04;47.18
14383;BME280;7275;50.328;8.720;2023-02-15T00:35:05;101247.72;;;8.02;47.21
14383;BME280;7275;50.328;8.720;2023-02-15T00:37:33;101248.59;;;8.00;47.31
14383;BME280;7275;50.328;8.720;2023-02-15T00:40:03;101252.09;;;7.97;47.33
14383;BME280;7275;50.328;8.720;2023-02-15T00:42:31;101250.34;;;7.96;47.30
14383;BME280;7275;50.328;8.720;2023-02-15T00:44:58;101243.34;;;7.94;47.49
14383;BME280;7275;50.328;8.720;2023-02-15T00:47:26;101244.22;;;7.91;47.45
14383;BME280;7275;50.328;8.720;2023-02-15T00:49:53;101251.22;;;7.91;47.15
14383;BME280;7275;50.328;8.720;2023-02-15T00:52:21;101252.13;;;7.90;47.41
14383;BME280;7275;50.328;8.720;2023-02-15T00:54:48;101250.38;;;7.86;47.45
14383;BME280;7275;50.328;8.720;2023-02-15T00:57:17;101246.84;;;7.81;47.46
14383;BME280;7275;50.328;8.720;2023-02-15T00:59:45;101244.22;;;7.76;47.56
14383;BME280;7275;50.328;8.720;2023-02-15T01:02:12;101247.75;;;7.72;47.78
14383;BME280;7275;50.328;8.720;2023-02-15T01:04:40;101249.50;;;7.69;47.79
14383;BME280;7275;50.328;8.720;2023-02-15T01:07:07;101253.03;;;7.65;47.68
14383;BME280;7275;50.328;8.720;2023-02-15T01:09:35;101246.88;;;7.60;47.79
14383;BME280;7275;50.328;8.720;2023-02-15T01:12:03;101251.28;;;7.56;47.66
14383;BME280;7275;50.328;8.720;2023-02-15T01:14:32;101240.72;;;7.53;47.65
14383;BME280;7275;50.328;8.720;2023-02-15T01:16:59;101251.25;;;7.53;47.84
14383;BME280;7275;50.328;8.720;2023-02-15T01:19:27;101243.38;;;7.50;47.77
14383;BME280;7275;50.328;8.720;2023-02-15T01:21:54;101237.22;;;7.50;47.82
14383;BME280;7275;50.328;8.720;2023-02-15T01:24:22;101244.25;;;7.48;47.84
14383;BME280;7275;50.328;8.720;2023-02-15T01:26:49;101234.59;;;7.45;47.87
14383;BME280;7275;50.328;8.720;2023-02-15T01:29:17;101239.00;;;7.45;47.88
14383;BME280;7275;50.328;8.720;2023-02-15T01:31:46;101226.72;;;7.44;47.97
14383;BME280;7275;50.328;8.720;2023-02-15T01:34:14;101222.34;;;7.44;48.00
14383;BME280;7275;50.328;8.720;2023-02-15T01:36:41;101229.34;;;7.45;47.94
14383;BME280;7275;50.328;8.720;2023-02-15T01:39:09;101226.72;;;7.45;48.03
14383;BME280;7275;50.328;8.720;2023-02-15T01:41:37;101218.81;;;7.45;48.11
14383;BME280;7275;50.328;8.720;2023-02-15T01:47:09;101226.72;;;7.47;47.98
14383;BME280;7275;50.328;8.720;2023-02-15T01:49:38;101215.31;;;7.48;48.35
14383;BME280;7275;50.328;8.720;2023-02-15T01:52:08;101219.69;;;7.52;48.14
14383;BME280;7275;50.328;8.720;2023-02-15T01:54:38;101221.44;;;7.56;48.18
14383;BME280;7275;50.328;8.720;2023-02-15T01:57:12;101212.69;;;7.57;48.18
14383;BME280;7275;50.328;8.720;2023-02-15T01:59:43;101224.09;;;7.59;48.07
14383;BME280;7275;50.328;8.720;2023-02-15T02:02:16;101213.53;;;7.57;48.14
14383;BME280;7275;50.328;8.720;2023-02-15T02:04:48;101210.03;;;7.55;48.18
14383;BME280;7275;50.328;8.720;2023-02-15T02:07:19;101210.03;;;7.58;48.25
14383;BME280;7275;50.328;8.720;2023-02-15T02:09:48;101208.28;;;7.59;48.14
14383;BME280;7275;50.328;8.720;2023-02-15T02:12:16;101209.16;;;7.62;48.24
14383;BME280;7275;50.328;8.720;2023-02-15T02:14:45;101207.41;;;7.67;48.35
14383;BME280;7275;50.328;8.720;2023-02-15T02:17:17;101206.50;;;7.68;48.28
14383;BME280;7275;50.328;8.720;2023-02-15T02:20:16;101191.59;;;7.69;48.13
14383;BME280;7275;50.328;8.720;2023-02-15T02:23:04;101188.09;;;7.71;48.10
14383;BME280;7275;50.328;8.720;2023-02-15T02:25:51;101181.06;;;7.70;48.15
14383;BME280;7275;50.328;8.720;2023-02-15T02:28:38;101190.72;;;7.70;48.26
14383;BME280;7275;50.328;8.720;2023-02-15T02:31:34;101188.09;;;7.71;48.16
14383;BME280;7275;50.328;8.720;2023-02-15T02:34:14;101193.34;;;7.73;48.11
14383;BME280;7275;50.328;8.720;2023-02-15T02:36:49;101175.78;;;7.76;48.18
14383;BME280;7275;50.328;8.720;2023-02-15T02:39:24;101180.19;;;7.79;48.19
14383;BME280;7275;50.328;8.720;2023-02-15T02:41:57;101179.31;;;7.81;47.95
14383;BME280;7275;50.328;8.720;2023-02-15T02:44:30;101182.78;;;7.80;48.15
14383;BME280;7275;50.328;8.720;2023-02-15T02:47:04;101175.78;;;7.81;48.14
14383;BME280;7275;50.328;8.720;2023-02-15T02:49:36;101175.78;;;7.81;48.24
14383;BME280;7275;50.328;8.720;2023-02-15T02:52:06;101173.16;;;7.81;48.11
14383;BME280;7275;50.328;8.720;2023-02-15T02:54:35;101171.41;;;7.81;48.06
14383;BME280;7275;50.328;8.720;2023-02-15T02:57:05;101165.25;;;7.79;48.11
14383;BME280;7275;50.328;8.720;2023-02-15T02:59:38;101159.13;;;7.77;48.17
14383;BME280;7275;50.328;8.720;2023-02-15T03:02:12;101164.38;;;7.79;48.40
14383;BME280;7275;50.328;8.720;2023-02-15T03:04:45;101153.84;;;7.80;48.11
14383;BME280;7275;50.328;8.720;2023-02-15T03:07:18;101156.50;;;7.82;48.26
14383;BME280;7275;50.328;8.720;2023-02-15T03:09:50;101160.00;;;7.81;48.33
14383;BME280;7275;50.328;8.720;2023-02-15T03:12:20;101145.97;;;7.76;47.96
14383;BME280;7275;50.328;8.720;2023-02-15T03:14:52;101144.19;;;7.76;48.26
14383;BME280;7275;50.328;8.720;2023-02-15T03:17:22;101146.84;;;7.73;47.98
14383;BME280;7275;50.328;8.720;2023-02-15T03:19:54;101145.97;;;7.70;48.02
14383;BME280;7275;50.328;8.720;2023-02-15T03:22:26;101146.00;;;7.65;48.30
14383;BME280;7275;50.328;8.720;2023-02-15T03:24:58;101150.38;;;7.68;48.34
14383;BME280;7275;50.328;8.720;2023-02-15T03:27:31;101158.25;;;7.68;48.13
14383;BME280;7275;50.328;8.720;2023-02-15T03:30:01;101151.25;;;7.67;48.20
14383;BME280;7275;50.328;8.720;2023-02-15T03:32:32;101155.63;;;7.68;48.34
14383;BME280;7275;50.328;8.720;2023-02-15T03:35:02;101148.63;;;7.67;48.14
14383;BME280;7275;50.328;8.720;2023-02-15T03:37:33;101149.50;;;7.66;48.45
14383;BME280;7275;50.328;8.720;2023-02-15T03:40:09;101146.88;;;7.64;48.20
14383;BME280;7275;50.328;8.720;2023-02-15T03:42:58;101147.75;;;7.62;48.50
14383;BME280;7275;50.328;8.720;2023-02-15T03:45:31;101151.28;;;7.61;48.39
14383;BME280;7275;50.328;8.720;2023-02-15T03:48:01;101144.25;;;7.61;48.51
14383;BME280;7275;50.328;8.720;2023-02-15T03:50:33;101149.53;;;7.61;48.53
14383;BME280;7275;50.328;8.720;2023-02-15T03:53:22;101146.91;;;7.57;48.58
14383;BME280;7275;50.328;8.720;2023-02-15T03:55:54;101144.25;;;7.55;48.57
14383;BME280;7275;50.328;8.720;2023-02-15T03:58:22;101152.13;;;7.55;48.56
14383;BME280;7275;50.328;8.720;2023-02-15T04:01:12;101145.16;;;7.54;48.60
14383;BME280;7275;50.328;8.720;2023-02-15T04:04:01;101144.25;;;7.54;48.92
14383;BME280;7275;50.328;8.720;2023-02-15T04:06:31;101147.75;;;7.56;48.67
14383;BME280;7275;50.328;8.720;2023-02-15T04:08:59;101144.25;;;7.60;48.82
14383;BME280;7275;50.328;8.720;2023-02-15T04:11:44;101142.50;;;7.57;48.67
14383;BME280;7275;50.328;8.720;2023-02-15T04:14:12;101145.13;;;7.57;48.53
14383;BME280;7275;50.328;8.720;2023-02-15T04:16:53;101138.13;;;7.56;48.71
14383;BME280;7275;50.328;8.720;2023-02-15T04:19:21;101137.25;;;7.56;48.65
14383;BME280;7275;50.328;8.720;2023-02-15T04:22:07;101127.59;;;7.55;48.64
14383;BME280;7275;50.328;8.720;2023-02-15T04:24:52;101137.25;;;7.53;48.70
14383;BME280;7275;50.328;8.720;2023-02-15T04:27:40;101132.88;;;7.52;48.65
14383;BME280;7275;50.328;8.720;2023-02-15T04:30:09;101127.59;;;7.53;48.57
14383;BME280;7275;50.328;8.720;2023-02-15T04:32:37;101130.22;;;7.56;48.72
14383;BME280;7275;50.328;8.720;2023-02-15T04:35:05;101125.84;;;7.58;48.73
14383;BME280;7275;50.328;8.720;2023-02-15T04:37:35;101118.81;;;7.56;48.69
14383;BME280;7275;50.328;8.720;2023-02-15T04:40:03;101113.56;;;7.51;48.52
14383;BME280;7275;50.328;8.720;2023-02-15T04:42:31;101123.22;;;7.54;48.69
14383;BME280;7275;50.328;8.720;2023-02-15T04:44:58;101122.34;;;7.52;48.69
14383;BME280;7275;50.328;8.720;2023-02-15T04:47:26;101128.47;;;7.52;48.83
14383;BME280;7275;50.328;8.720;2023-02-15T04:49:54;101117.97;;;7.51;48.65
14383;BME280;7275;50.328;8.720;2023-02-15T04:52:23;101118.84;;;7.48;48.77
14383;BME280;7275;50.328;8.720;2023-02-15T04:54:53;101112.72;;;7.46;48.80
14383;BME280;7275;50.328;8.720;2023-02-15T04:57:20;101109.19;;;7.47;48.92
14383;BME280;7275;50.328;8.720;2023-02-15T04:59:48;101116.22;;;7.47;48.99
14383;BME280;7275;50.328;8.720;2023-02-15T05:02:15;101114.47;;;7.46;49.12
14383;BME280;7275;50.328;8.720;2023-02-15T05:04:43;101104.84;;;7.45;49.07
14383;BME280;7275;50.328;8.720;2023-02-15T05:07:10;101110.97;;;7.44;49.09
14383;BME280;7275;50.328;8.720;2023-02-15T05:09:38;101115.34;;;7.46;49.01
14383;BME280;7275;50.328;8.720;2023-02-15T05:12:07;101103.94;;;7.47;48.99
14383;BME280;7275;50.328;8.720;2023-02-15T05:14:35;101100.44;;;7.47;49.06
14383;BME280;7275;50.328;8.720;2023-02-15T05:17:02;101110.06;;;7.48;49.00
14383;BME280;7275;50.328;8.720;2023-02-15T05:19:31;101115.34;;;7.46;49.10
14383;BME280;7275;50.328;8.720;2023-02-15T05:21:59;101097.81;;;7.44;48.96
14383;BME280;7275;50.328;8.720;2023-02-15T05:24:26;101109.22;;;7.40;49.03
14383;BME280;7275;50.328;8.720;2023-02-15T05:27:13;101107.47;;;7.36;49.03
14383;BME280;7275;50.328;8.720;2023-02-15T05:29:58;101104.84;;;7.33;49.22
14383;BME280;7275;50.328;8.720;2023-02-15T05:32:26;101106.59;;;7.34;49.18
14383;BME280;7275;50.328;8.720;2023-02-15T05:34:54;101099.59;;;7.34;49.06
14383;BME280;7275;50.328;8.720;2023-02-15T05:37:21;101098.69;;;7.37;49.30
14383;BME280;7275;50.328;8.720;2023-02-15T05:39:49;101103.97;;;7.38;49.13
14383;BME280;7275;50.328;8.720;2023-02-15T05:42:18;101099.59;;;7.36;49.29
14383;BME280;7275;50.328;8.720;2023-02-15T05:44:46;101094.34;;;7.34;49.27
14383;BME280;7275;50.328;8.720;2023-02-15T05:47:13;101093.47;;;7.32;49.30
14383;BME280;7275;50.328;8.720;2023-02-15T05:49:41;101100.47;;;7.32;49.36
14383;BME280;7275;50.328;8.720;2023-02-15T05:52:08;101099.56;;;7.28;49.55
14383;BME280;7275;50.328;8.720;2023-02-15T05:54:38;101103.09;;;7.27;49.18
14383;BME280;7275;50.328;8.720;2023-02-15T05:57:06;101096.97;;;7.22;49.28
14383;BME280;7275;50.328;8.720;2023-02-15T05:59:34;101103.97;;;7.23;49.54
14383;BME280;7275;50.328;8.720;2023-02-15T06:02:02;101109.25;;;7.21;49.48
14383;BME280;7275;50.328;8.720;2023-02-15T06:04:30;101110.09;;;7.22;49.23
14383;BME280;7275;50.328;8.720;2023-02-15T06:06:57;101110.13;;;7.20;49.35
14383;BME280;7275;50.328;8.720;2023-02-15T06:09:25;101114.50;;;7.18;49.40
14383;BME280;7275;50.328;8.720;2023-02-15T06:11:52;101122.38;;;7.18;49.52
14383;BME280;7275;50.328;8.720;2023-02-15T06:14:20;101123.28;;;7.17;49.52
14383;BME280;7275;50.328;8.720;2023-02-15T06:16:49;101127.66;;;7.17;49.64
14383;BME280;7275;50.328;8.720;2023-02-15T06:19:17;101132.91;;;7.17;49.60
14383;BME280;7275;50.328;8.720;2023-02-15T06:21:45;101118.88;;;7.16;49.61
14383;BME280;7275;50.328;8.720;2023-02-15T06:24:12;101130.28;;;7.18;49.67
14383;BME280;7275;50.328;8.720;2023-02-15T06:26:40;101115.41;;;7.17;49.77
14383;BME280;7275;50.328;8.720;2023-02-15T06:29:08;101122.38;;;7.20;49.63
14383;BME280;7275;50.328;8.720;2023-02-15T06:31:35;101118.88;;;7.18;49.81
14383;BME280;7275;50.328;8.720;2023-02-15T06:34:04;101123.28;;;7.19;49.88
14383;BME280;7275;50.328;8.720;2023-02-15T06:36:32;101113.63;;;7.19;49.75
14383;BME280;7275;50.328;8.720;2023-02-15T06:38:59;101120.63;;;7.22;49.95
14383;BME280;7275;50.328;8.720;2023-02-15T06:41:28;101122.41;;;7.23;49.66
14383;BME280;7275;50.328;8.720;2023-02-15T06:43:56;101128.53;;;7.25;50.03
14383;BME280;7275;50.328;8.720;2023-02-15T06:46:24;101129.41;;;7.25;49.95
14383;BME280;7275;50.328;8.720;2023-02-15T06:48:51;101125.00;;;7.26;49.78
14383;BME280;7275;50.328;8.720;2023-02-15T06:51:20;101135.53;;;7.28;50.01
14383;BME280;7275;50.328;8.720;2023-02-15T06:53:48;101134.66;;;7.28;50.14
14383;BME280;7275;50.328;8.720;2023-02-15T06:56:16;101132.91;;;7.31;50.06
14383;BME280;7275;50.328;8.720;2023-02-15T06:58:43;101139.91;;;7.33;50.13
14383;BME280;7275;50.328;8.720;2023-02-15T07:01:12;101137.28;;;7.35;50.06
14383;BME280;7275;50.328;8.720;2023-02-15T07:03:39;101134.66;;;7.36;50.33
14383;BME280;7275;50.328;8.720;2023-02-15T07:06:07;101130.28;;;7.38;49.93
14383;BME280;7275;50.328;8.720;2023-02-15T07:08:38;101131.16;;;7.40;50.29
14383;BME280;7275;50.328;8.720;2023-02-15T07:11:06;101129.38;;;7.42;50.15
14383;BME280;7275;50.328;8.720;2023-02-15T07:13:52;101139.03;;;7.42;50.19
14383;BME280;7275;50.328;8.720;2023-02-15T07:16:20;101140.75;;;7.43;50.24
14383;BME280;7275;50.328;8.720;2023-02-15T07:18:48;101149.56;;;7.45;50.25
14383;BME280;7275;50.328;8.720;2023-02-15T07:21:16;101146.91;;;7.43;50.29
14383;BME280;7275;50.328;8.720;2023-02-15T07:23:45;101139.00;;;7.43;50.33
14383;BME280;7275;50.328;8.720;2023-02-15T07:26:13;101142.50;;;7.45;50.28
14383;BME280;7275;50.328;8.720;2023-02-15T07:28:40;101139.91;;;7.47;50.49
14383;BME280;7275;50.328;8.720;2023-02-15T07:31:08;101129.38;;;7.44;50.60
14383;BME280;7275;50.328;8.720;2023-02-15T07:33:36;101127.63;;;7.46;50.57
14383;BME280;7275;50.328;8.720;2023-02-15T07:36:04;101132.00;;;7.50;50.56
14383;BME280;7275;50.328;8.720;2023-02-15T07:38:33;101130.22;;;7.52;50.49
14383;BME280;7275;50.328;8.720;2023-02-15T07:41:05;101139.00;;;7.52;50.42
14383;BME280;7275;50.328;8.720;2023-02-15T07:43:34;101135.50;;;7.55;50.54
14383;BME280;7275;50.328;8.720;2023-02-15T07:46:04;101124.09;;;7.54;50.48
14383;BME280;7275;50.328;8.720;2023-02-15T07:48:34;101125.81;;;7.55;50.70
14383;BME280;7275;50.328;8.720;2023-02-15T07:51:03;101125.84;;;7.54;50.63
14383;BME280;7275;50.328;8.720;2023-02-15T07:53:31;101118.84;;;7.53;50.81
14383;BME280;7275;50.328;8.720;2023-02-15T07:56:00;101126.75;;;7.53;50.75
14383;BME280;7275;50.328;8.720;2023-02-15T07:58:30;101116.19;;;7.54;50.95
14383;BME280;7275;50.328;8.720;2023-02-15T08:01:11;101112.69;;;7.54;50.85
14383;BME280;7275;50.328;8.720;2023-02-15T08:03:39;101108.28;;;7.56;50.89
14383;BME280;7275;50.328;8.720;2023-02-15T08:06:07;101105.66;;;7.59;50.85
14383;BME280;7275;50.328;8.720;2023-02-15T08:08:36;101096.91;;;7.61;50.90
14383;BME280;7275;50.328;8.720;2023-02-15T08:11:05;101103.03;;;7.63;50.79
14383;BME280;7275;50.328;8.720;2023-02-15T08:13:53;101097.78;;;7.63;50.95
14383;BME280;7275;50.328;8.720;2023-02-15T08:16:23;101106.53;;;7.65;51.01
14383;BME280;7275;50.328;8.720;2023-02-15T08:18:51;101100.38;;;7.66;50.99
14383;BME280;7275;50.328;8.720;2023-02-15T08:21:20;101103.00;;;7.69;51.03
14383;BME280;7275;50.328;8.720;2023-02-15T08:23:50;101113.50;;;7.72;50.92
14383;BME280;7275;50.328;8.720;2023-02-15T08:26:18;101103.00;;;7.74;50.95
14383;BME280;7275;50.328;8.720;2023-02-15T08:28:46;101104.72;;;7.75;50.94
14383;BME280;7275;50.328;8.720;2023-02-15T08:31:16;101103.88;;;7.76;50.98
14383;BME280;7275;50.328;8.720;2023-02-15T08:33:46;101108.22;;;7.77;50.93
14383;BME280;7275;50.328;8.720;2023-02-15T08:36:17;101103.84;;;7.79;50.95
14383;BME280;7275;50.328;8.720;2023-02-15T08:38:45;101109.09;;;7.82;50.75
14383;BME280;7275;50.328;8.720;2023-02-15T08:41:15;101102.97;;;7.81;50.91
14383;BME280;7275;50.328;8.720;2023-02-15T08:43:43;101109.09;;;7.82;50.94
14383;BME280;7275;50.328;8.720;2023-02-15T08:46:11;101101.22;;;7.82;51.15
14383;BME280;7275;50.328;8.720;2023-02-15T08:48:40;101102.09;;;7.79;51.16
14383;BME280;7275;50.328;8.720;2023-02-15T08:51:10;101099.47;;;7.78;51.05
14383;BME280;7275;50.328;8.720;2023-02-15T08:53:38;101081.94;;;7.74;51.01
14383;BME280;7275;50.328;8.720;2023-02-15T08:56:07;101106.50;;;7.73;51.07
14383;BME280;7275;50.328;8.720;2023-02-15T08:58:35;101088.06;;;7.70;51.34
14383;BME280;7275;50.328;8.720;2023-02-15T09:01:08;101079.31;;;7.68;51.25
14383;BME280;7275;50.328;8.720;2023-02-15T09:03:36;101092.47;;;7.68;51.31
14383;BME280;7275;50.328;8.720;2023-02-15T09:06:06;101088.97;;;7.67;51.42
14383;BME280;7275;50.328;8.720;2023-02-15T09:08:34;101075.81;;;7.67;51.34
14383;BME280;7275;50.328;8.720;2023-02-15T09:11:07;101075.81;;;7.69;51.34
14383;BME280;7275;50.328;8.720;2023-02-15T09:13:35;101077.53;;;7.70;51.25
14383;BME280;7275;50.328;8.720;2023-02-15T09:16:05;101075.81;;;7.69;51.45
14383;BME280;7275;50.328;8.720;2023-02-15T09:18:34;101074.91;;;7.68;51.41
14383;BME280;7275;50.328;8.720;2023-02-15T09:21:06;101063.50;;;7.68;51.50
14383;BME280;7275;50.328;8.720;2023-02-15T09:23:34;101074.03;;;7.71;51.50
14383;BME280;7275;50.328;8.720;2023-02-15T09:26:04;101070.53;;;7.70;51.42
14383;BME280;7275;50.328;8.720;2023-02-15T09:28:32;101067.88;;;7.72;51.19
14383;BME280;7275;50.328;8.720;2023-02-15T09:31:07;101068.78;;;7.69;51.40
14383;BME280;7275;50.328;8.720;2023-02-15T09:33:36;101062.66;;;7.67;51.36
14383;BME280;7275;50.328;8.720;2023-02-15T09:36:15;101055.63;;;7.68;51.44
14383;BME280;7275;50.328;8.720;2023-02-15T09:38:42;101060.03;;;7.69;51.38
14383;BME280;7275;50.328;8.720;2023-02-15T09:41:31;101067.91;;;7.69;51.37
14383;BME280;7275;50.328;8.720;2023-02-15T09:44:11;101068.78;;;7.69;51.41
14383;BME280;7275;50.328;8.720;2023-02-15T09:46:57;101070.53;;;7.69;51.44
14383;BME280;7275;50.328;8.720;2023-02-15T09:49:32;101068.78;;;7.69;51.44
14383;BME280;7275;50.328;8.720;2023-02-15T09:52:27;101065.28;;;7.67;51.51
14383;BME280;7275;50.328;8.720;2023-02-15T09:55:10;101074.94;;;7.65;51.42
14383;BME280;7275;50.328;8.720;2023-02-15T09:57:47;101071.44;;;7.65;51.17
14383;BME280;7275;50.328;8.720;2023-02-15T10:00:24;101070.56;;;7.64;51.38
14383;BME280;7275;50.328;8.720;2023-02-15T10:03:08;101081.97;;;7.65;51.36
14383;BME280;7275;50.328;8.720;2023-02-15T10:05:51;101075.81;;;7.66;51.25
14383;BME280;7275;50.328;8.720;2023-02-15T10:08:37;101075.81;;;7.66;51.38
14383;BME280;7275;50.328;8.720;2023-02-15T10:11:14;101068.78;;;7.68;51.44
14383;BME280;7275;50.328;8.720;2023-02-15T10:14:15;101068.78;;;7.68;51.42
14383;BME280;7275;50.328;8.720;2023-02-15T10:16:53;101076.69;;;7.71;51.45
14383;BME280;7275;50.328;8.720;2023-02-15T10:19:30;101076.66;;;7.72;51.40
14383;BME280;7275;50.328;8.720;2023-02-15T10:22:12;101063.50;;;7.68;51.26
14383;BME280;7275;50.328;8.720;2023-02-15T10:24:55;101072.28;;;7.70;51.34
14383;BME280;7275;50.328;8.720;2023-02-15T10:27:28;101083.69;;;7.70;51.14
14383;BME280;7275;50.328;8.720;2023-02-15T10:30:03;101081.94;;;7.69;51.33
14383;BME280;7275;50.328;8.720;2023-02-15T10:32:39;101072.28;;;7.68;51.25
14383;BME280;7275;50.328;8.720;2023-02-15T10:35:20;101071.44;;;7.69;51.46
14383;BME280;7275;50.328;8.720;2023-02-15T10:37:56;101079.31;;;7.74;51.28
14383;BME280;7275;50.328;8.720;2023-02-15T10:40:34;101081.94;;;7.75;51.03
14383;BME280;7275;50.328;8.720;2023-02-15T10:43:14;101088.94;;;7.79;51.11
14383;BME280;7275;50.328;8.720;2023-02-15T10:45:56;101076.66;;;7.77;51.10
14383;BME280;7275;50.328;8.720;2023-02-15T10:48:40;101071.41;;;7.75;51.03
14383;BME280;7275;50.328;8.720;2023-02-15T10:51:16;101067.91;;;7.73;51.06
14383;BME280;7275;50.328;8.720;2023-02-15T10:54:00;101069.66;;;7.71;50.96
14383;BME280;7275;50.328;8.720;2023-02-15T10:56:36;101081.09;;;7.67;50.87
14383;BME280;7275;50.328;8.720;2023-02-15T10:59:22;101077.56;;;7.64;51.12
14383;BME280;7275;50.328;8.720;2023-02-15T11:01:56;101080.22;;;7.61;51.18
14383;BME280;7275;50.328;8.720;2023-02-15T11:04:39;101070.56;;;7.60;51.13
14383;BME280;7275;50.328;8.720;2023-02-15T11:07:13;101084.59;;;7.60;51.11
14383;BME280;7275;50.328;8.720;2023-02-15T11:09:45;101078.47;;;7.58;51.15
14383;BME280;7275;50.328;8.720;2023-02-15T11:12:19;101073.22;;;7.58;51.06
14383;BME280;7275;50.328;8.720;2023-02-15T11:14:52;101074.97;;;7.59;51.12
14383;BME280;7275;50.328;8.720;2023-02-15T11:17:25;101074.06;;;7.65;51.25
14383;BME280;7275;50.328;8.720;2023-02-15T11:20:00;101073.19;;;7.69;51.24
14383;BME280;7275;50.328;8.720;2023-02-15T11:22:32;101076.69;;;7.71;51.25
14383;BME280;7275;50.328;8.720;2023-02-15T11:25:04;101071.41;;;7.71;51.29
14383;BME280;7275;50.328;8.720;2023-02-15T11:27:45;101070.53;;;7.70;50.95
14383;BME280;7275;50.328;8.720;2023-02-15T11:30:17;101060.03;;;7.69;50.97
14383;BME280;7275;50.328;8.720;2023-02-15T11:32:47;101065.28;;;7.69;50.94
14383;BME280;7275;50.328;8.720;2023-02-15T11:35:26;101059.13;;;7.68;51.04
14383;BME280;7275;50.328;8.720;2023-02-15T11:38:02;101060.91;;;7.69;51.13
14383;BME280;7275;50.328;8.720;2023-02-15T11:40:34;101049.50;;;7.66;50.96
14383;BME280;7275;50.328;8.720;2023-02-15T11:43:06;101058.25;;;7.71;51.28
14383;BME280;7275;50.328;8.720;2023-02-15T11:45:39;101049.47;;;7.73;51.20
14383;BME280;7275;50.328;8.720;2023-02-15T11:48:11;101053.84;;;7.76;51.11
14383;BME280;7275;50.328;8.720;2023-02-15T11:50:40;101063.50;;;7.80;51.05
14383;BME280;7275;50.328;8.720;2023-02-15T11:53:12;101057.31;;;7.82;50.96
14383;BME280;7275;50.328;8.720;2023-02-15T11:55:41;101050.28;;;7.84;51.01
14383;BME280;7275;50.328;8.720;2023-02-15T11:58:21;101045.03;;;7.86;51.02
14383;BME280;7275;50.328;8.720;2023-02-15T12:00:54;101040.63;;;7.86;51.07
14383;BME280;7275;50.328;8.720;2023-02-15T12:03:27;101029.25;;;7.86;51.11
14383;BME280;7275;50.328;8.720;2023-02-15T12:06:02;101030.97;;;7.87;51.07
14383;BME280;7275;50.328;8.720;2023-02-15T12:08:37;101019.56;;;7.88;51.22
14383;BME280;7275;50.328;8.720;2023-02-15T12:11:08;101014.31;;;7.88;50.84
14383;BME280;7275;50.328;8.720;2023-02-15T12:13:54;101008.13;;;7.89;51.14
14383;BME280;7275;50.328;8.720;2023-02-15T12:16:22;101009.03;;;7.89;51.03
14383;BME280;7275;50.328;8.720;2023-02-15T12:18:52;101009.00;;;7.91;51.06
14383;BME280;7275;50.328;8.720;2023-02-15T12:21:26;101012.53;;;7.90;51.18
14383;BME280;7275;50.328;8.720;2023-02-15T12:23:56;101015.19;;;7.88;51.41
14383;BME280;7275;50.328;8.720;2023-02-15T12:26:26;101012.50;;;7.93;51.07
14383;BME280;7275;50.328;8.720;2023-02-15T12:28:58;101009.88;;;7.93;51.04
14383;BME280;7275;50.328;8.720;2023-02-15T12:31:32;101007.25;;;7.93;50.77
14383;BME280;7275;50.328;8.720;2023-02-15T12:34:02;101009.00;;;7.94;50.98
14383;BME280;7275;50.328;8.720;2023-02-15T12:36:34;101000.22;;;7.95;51.10
14383;BME280;7275;50.328;8.720;2023-02-15T12:39:24;100999.31;;;7.97;51.02
14383;BME280;7275;50.328;8.720;2023-02-15T12:42:00;100999.31;;;7.97;51.01
14383;BME280;7275;50.328;8.720;2023-02-15T12:44:31;100999.31;;;7.97;50.98
14383;BME280;7275;50.328;8.720;2023-02-15T12:47:01;100995.81;;;7.98;50.97
14383;BME280;7275;50.328;8.720;2023-02-15T12:49:31;100996.69;;;8.00;51.06
14383;BME280;7275;50.328;8.720;2023-02-15T12:52:00;100991.38;;;8.03;50.98
14383;BME280;7275;50.328;8.720;2023-02-15T12:54:31;100982.59;;;8.06;50.81
14383;BME280;7275;50.328;8.720;2023-02-15T12:57:14;100987.00;;;8.07;51.03
14383;BME280;7275;50.328;8.720;2023-02-15T12:59:50;100979.97;;;8.04;50.92
14383;BME280;7275;50.328;8.720;2023-02-15T13:02:23;100982.63;;;8.04;51.03
14383;BME280;7275;50.328;8.720;2023-02-15T13:04:53;100986.13;;;8.05;50.79
14383;BME280;7275;50.328;8.720;2023-02-15T13:07:21;100979.97;;;8.06;50.82
14383;BME280;7275;50.328;8.720;2023-02-15T13:09:49;100972.03;;;8.07;50.76
14383;BME280;7275;50.328;8.720;2023-02-15T13:12:20;100964.16;;;8.09;50.91
14383;BME280;7275;50.328;8.720;2023-02-15T13:14:52;100964.13;;;8.11;51.01
14383;BME280;7275;50.328;8.720;2023-02-15T13:17:25;100962.38;;;8.13;51.02
14383;BME280;7275;50.328;8.720;2023-02-15T13:19:57;100949.19;;;8.13;50.81
14383;BME280;7275;50.328;8.720;2023-02-15T13:22:31;100964.09;;;8.17;50.94
14383;BME280;7275;50.328;8.720;2023-02-15T13:25:03;100942.16;;;8.18;51.08
14383;BME280;7275;50.328;8.720;2023-02-15T13:27:36;100949.13;;;8.23;51.09
14383;BME280;7275;50.328;8.720;2023-02-15T13:30:16;100948.22;;;8.24;51.08
14383;BME280;7275;50.328;8.720;2023-02-15T13:32:48;100948.22;;;8.29;50.66
14383;BME280;7275;50.328;8.720;2023-02-15T13:35:17;100938.56;;;8.29;50.87
14383;BME280;7275;50.328;8.720;2023-02-15T13:38:00;100941.16;;;8.34;50.82